sensor_id;sensor_type;location;lat;lon;timestamp;pressure;altitude;pressure_sealevel;temperature;humidity
58662;BME280;44432;49.786;22.760;2023-04-28T00:00:03;99857.48;;;2.54;73.21
58662;BME280;44432;49.786;22.760;2023-04-28T00:02:52;99856.64;;;2.52;73.23
58662;BME280;44432;49.786;22.760;2023-04-28T00:05:21;99857.96;;;2.53;73.18
58662;BME280;44432;49.786;22.760;2023-04-28T00:07:51;99862.14;;;2.51;73.27
58662;BME280;44432;49.786;22.760;2023-04-28T00:10:20;99860.07;;;2.49;73.40
58662;BME280;44432;49.786;22.760;2023-04-28T00:12:50;99864.63;;;2.47;73.54
58662;BME280;44432;49.786;22.760;2023-04-28T00:15:19;99861.73;;;2.44;73.73
58662;BME280;44432;49.786;22.760;2023-04-28T00:17:48;99856.93;;;2.40;73.68
58662;BME280;44432;49.786;22.760;2023-04-28T00:20:17;99863.18;;;2.37;73.79
58662;BME280;44432;49.786;22.760;2023-04-28T00:22:46;99861.09;;;2.33;73.92
58662;BME280;44432;49.786;22.760;2023-04-28T00:25:16;99862.92;;;2.28;74.03
58662;BME280;44432;49.786;22.760;2023-04-28T00:27:45;99863.23;;;2.24;74.14
58662;BME280;44432;49.786;22.760;2023-04-28T00:30:14;99860.40;;;2.21;74.53
58662;BME280;44432;49.786;22.760;2023-04-28T00:32:43;99860.47;;;2.19;74.39
58662;BME280;44432;49.786;22.760;2023-04-28T00:35:12;99859.16;;;2.16;74.45
58662;BME280;44432;49.786;22.760;2023-04-28T00:37:41;99857.69;;;2.14;74.41
58662;BME280;44432;49.786;22.760;2023-04-28T00:40:11;99861.69;;;2.08;74.60
58662;BME280;44432;49.786;22.760;2023-04-28T00:42:40;99863.54;;;2.02;74.32
58662;BME280;44432;49.786;22.760;2023-04-28T00:45:09;99862.08;;;1.95;74.77
58662;BME280;44432;49.786;22.760;2023-04-28T00:47:38;99863.96;;;1.90;74.93
58662;BME280;44432;49.786;22.760;2023-04-28T00:50:10;99866.11;;;1.85;75.21
58662;BME280;44432;49.786;22.760;2023-04-28T00:52:39;99868.04;;;1.81;75.30
58662;BME280;44432;49.786;22.760;2023-04-28T00:55:08;99866.41;;;1.77;75.49
58662;BME280;44432;49.786;22.760;2023-04-28T00:57:37;99867.77;;;1.73;75.68
58662;BME280;44432;49.786;22.760;2023-04-28T01:00:07;99867.86;;;1.70;75.90
58662;BME280;44432;49.786;22.760;2023-04-28T01:02:36;99867.50;;;1.69;75.81
58662;BME280;44432;49.786;22.760;2023-04-28T01:05:06;99869.95;;;1.67;75.92
58662;BME280;44432;49.786;22.760;2023-04-28T01:07:36;99864.21;;;1.61;75.80
58662;BME280;44432;49.786;22.760;2023-04-28T01:10:06;99868.95;;;1.60;76.00
58662;BME280;44432;49.786;22.760;2023-04-28T01:12:36;99869.91;;;1.59;76.17
58662;BME280;44432;49.786;22.760;2023-04-28T01:15:06;99869.42;;;1.57;76.23
58662;BME280;44432;49.786;22.760;2023-04-28T01:17:35;99870.11;;;1.55;76.36
58662;BME280;44432;49.786;22.760;2023-04-28T01:20:05;99867.67;;;1.53;76.47
58662;BME280;44432;49.786;22.760;2023-04-28T01:22:35;99863.46;;;1.50;76.56
58662;BME280;44432;49.786;22.760;2023-04-28T01:25:04;99865.91;;;1.48;76.49
58662;BME280;44432;49.786;22.760;2023-04-28T01:27:33;99868.60;;;1.45;76.49
58662;BME280;44432;49.786;22.760;2023-04-28T01:30:03;99861.34;;;1.41;76.66
58662;BME280;44432;49.786;22.760;2023-04-28T01:32:32;99867.09;;;1.41;76.78
58662;BME280;44432;49.786;22.760;2023-04-28T01:35:01;99862.67;;;1.38;76.67
58662;BME280;44432;49.786;22.760;2023-04-28T01:37:30;99863.95;;;1.36;76.77
58662;BME280;44432;49.786;22.760;2023-04-28T01:39:59;99862.23;;;1.31;76.75
58662;BME280;44432;49.786;22.760;2023-04-28T01:42:28;99862.10;;;1.29;76.89
58662;BME280;44432;49.786;22.760;2023-04-28T01:44:57;99865.77;;;1.27;76.85
58662;BME280;44432;49.786;22.760;2023-04-28T01:47:26;99863.80;;;1.23;77.05
58662;BME280;44432;49.786;22.760;2023-04-28T01:49:55;99863.70;;;1.21;77.12
58662;BME280;44432;49.786;22.760;2023-04-28T01:52:24;99866.52;;;1.19;77.36
58662;BME280;44432;49.786;22.760;2023-04-28T01:54:54;99860.77;;;1.15;77.26
58662;BME280;44432;49.786;22.760;2023-04-28T01:57:24;99861.18;;;1.11;77.30
58662;BME280;44432;49.786;22.760;2023-04-28T01:59:55;99864.98;;;1.07;77.65
58662;BME280;44432;49.786;22.760;2023-04-28T02:02:25;99863.04;;;1.04;77.68
58662;BME280;44432;49.786;22.760;2023-04-28T02:04:54;99865.81;;;1.02;77.86
58662;BME280;44432;49.786;22.760;2023-04-28T02:07:24;99866.98;;;1.00;78.01
58662;BME280;44432;49.786;22.760;2023-04-28T02:09:53;99868.47;;;0.99;77.93
58662;BME280;44432;49.786;22.760;2023-04-28T02:12:22;99873.52;;;0.99;78.11
58662;BME280;44432;49.786;22.760;2023-04-28T02:14:51;99875.66;;;0.98;77.95
58662;BME280;44432;49.786;22.760;2023-04-28T02:17:21;99876.11;;;0.97;78.03
58662;BME280;44432;49.786;22.760;2023-04-28T02:19:54;99876.98;;;0.95;78.02
58662;BME280;44432;49.786;22.760;2023-04-28T02:22:24;99879.82;;;0.92;77.93
58662;BME280;44432;49.786;22.760;2023-04-28T02:24:53;99881.05;;;0.90;78.10
58662;BME280;44432;49.786;22.760;2023-04-28T02:27:22;99882.94;;;0.88;78.12
58662;BME280;44432;49.786;22.760;2023-04-28T02:29:51;99884.96;;;0.87;78.20
58662;BME280;44432;49.786;22.760;2023-04-28T02:32:20;99884.73;;;0.86;78.23
58662;BME280;44432;49.786;22.760;2023-04-28T02:34:52;99881.67;;;0.83;78.30
58662;BME280;44432;49.786;22.760;2023-04-28T02:37:22;99883.42;;;0.81;78.34
58662;BME280;44432;49.786;22.760;2023-04-28T02:39:51;99882.35;;;0.80;78.50
58662;BME280;44432;49.786;22.760;2023-04-28T02:42:20;99886.41;;;0.79;78.52
58662;BME280;44432;49.786;22.760;2023-04-28T02:44:49;99884.86;;;0.77;78.58
58662;BME280;44432;49.786;22.760;2023-04-28T02:47:18;99885.40;;;0.74;78.66
58662;BME280;44432;49.786;22.760;2023-04-28T02:49:47;99885.19;;;0.73;78.58
58662;BME280;44432;49.786;22.760;2023-04-28T02:52:16;99888.88;;;0.71;78.75
58662;BME280;44432;49.786;22.760;2023-04-28T02:54:45;99891.99;;;0.68;78.82
58662;BME280;44432;49.786;22.760;2023-04-28T02:57:15;99894.95;;;0.67;78.91
58662;BME280;44432;49.786;22.760;2023-04-28T02:59:44;99894.03;;;0.65;79.00
58662;BME280;44432;49.786;22.760;2023-04-28T03:02:13;99893.07;;;0.62;78.99
58662;BME280;44432;49.786;22.760;2023-04-28T03:04:43;99893.02;;;0.61;79.08
58662;BME280;44432;49.786;22.760;2023-04-28T03:07:12;99898.20;;;0.58;79.03
58662;BME280;44432;49.786;22.760;2023-04-28T03:09:42;99898.42;;;0.56;78.99
58662;BME280;44432;49.786;22.760;2023-04-28T03:12:13;99903.88;;;0.53;79.20
58662;BME280;44432;49.786;22.760;2023-04-28T03:14:42;99905.44;;;0.52;79.28
58662;BME280;44432;49.786;22.760;2023-04-28T03:17:11;99905.24;;;0.50;79.28
58662;BME280;44432;49.786;22.760;2023-04-28T03:19:41;99903.90;;;0.47;79.45
58662;BME280;44432;49.786;22.760;2023-04-28T03:22:10;99906.11;;;0.46;79.27
58662;BME280;44432;49.786;22.760;2023-04-28T03:24:39;99909.10;;;0.45;79.47
58662;BME280;44432;49.786;22.760;2023-04-28T03:27:09;99907.88;;;0.43;79.52
58662;BME280;44432;49.786;22.760;2023-04-28T03:29:39;99911.73;;;0.43;79.53
58662;BME280;44432;49.786;22.760;2023-04-28T03:32:08;99911.09;;;0.42;79.56
58662;BME280;44432;49.786;22.760;2023-04-28T03:34:37;99916.64;;;0.42;79.49
58662;BME280;44432;49.786;22.760;2023-04-28T03:37:06;99925.67;;;0.42;79.60
58662;BME280;44432;49.786;22.760;2023-04-28T03:39:35;99925.63;;;0.43;79.82
58662;BME280;44432;49.786;22.760;2023-04-28T03:42:05;99928.30;;;0.44;79.80
58662;BME280;44432;49.786;22.760;2023-04-28T03:44:34;99928.05;;;0.44;79.84
58662;BME280;44432;49.786;22.760;2023-04-28T03:47:03;99927.52;;;0.45;79.83
58662;BME280;44432;49.786;22.760;2023-04-28T03:49:32;99922.98;;;0.45;79.88
58662;BME280;44432;49.786;22.760;2023-04-28T03:52:01;99928.29;;;0.48;79.92
58662;BME280;44432;49.786;22.760;2023-04-28T03:54:31;99929.69;;;0.49;79.99
58662;BME280;44432;49.786;22.760;2023-04-28T03:57:00;99932.23;;;0.52;79.96
58662;BME280;44432;49.786;22.760;2023-04-28T03:59:29;99931.97;;;0.55;80.01
58662;BME280;44432;49.786;22.760;2023-04-28T04:01:58;99938.44;;;0.58;80.00
58662;BME280;44432;49.786;22.760;2023-04-28T04:04:27;99935.45;;;0.61;79.88
58662;BME280;44432;49.786;22.760;2023-04-28T04:06:56;99940.04;;;0.64;79.92
58662;BME280;44432;49.786;22.760;2023-04-28T04:09:25;99939.50;;;0.66;79.97
58662;BME280;44432;49.786;22.760;2023-04-28T04:11:54;99939.84;;;0.70;79.97
58662;BME280;44432;49.786;22.760;2023-04-28T04:14:23;99940.74;;;0.74;79.86
58662;BME280;44432;49.786;22.760;2023-04-28T04:16:52;99941.08;;;0.78;79.89
58662;BME280;44432;49.786;22.760;2023-04-28T04:19:22;99942.48;;;0.81;79.96
58662;BME280;44432;49.786;22.760;2023-04-28T04:21:53;99941.59;;;0.85;79.95
58662;BME280;44432;49.786;22.760;2023-04-28T04:24:22;99946.86;;;0.91;79.99
58662;BME280;44432;49.786;22.760;2023-04-28T04:26:51;99950.02;;;0.96;79.73
58662;BME280;44432;49.786;22.760;2023-04-28T04:29:20;99951.97;;;1.02;79.79
58662;BME280;44432;49.786;22.760;2023-04-28T04:31:49;99950.98;;;1.07;79.76
58662;BME280;44432;49.786;22.760;2023-04-28T04:34:18;99953.02;;;1.13;79.67
58662;BME280;44432;49.786;22.760;2023-04-28T04:36:47;99954.39;;;1.19;79.60
58662;BME280;44432;49.786;22.760;2023-04-28T04:39:16;99957.79;;;1.25;79.65
58662;BME280;44432;49.786;22.760;2023-04-28T04:41:45;99956.26;;;1.31;79.52
58662;BME280;44432;49.786;22.760;2023-04-28T04:44:14;99957.27;;;1.37;79.51
58662;BME280;44432;49.786;22.760;2023-04-28T04:46:43;99956.52;;;1.45;79.63
58662;BME280;44432;49.786;22.760;2023-04-28T04:49:12;99954.84;;;1.54;79.46
58662;BME280;44432;49.786;22.760;2023-04-28T04:51:42;99954.17;;;1.64;79.67
58662;BME280;44432;49.786;22.760;2023-04-28T04:54:11;99951.62;;;1.73;79.35
58662;BME280;44432;49.786;22.760;2023-04-28T04:56:40;99954.17;;;1.83;79.46
58662;BME280;44432;49.786;22.760;2023-04-28T04:59:09;99954.95;;;1.93;79.12
58662;BME280;44432;49.786;22.760;2023-04-28T05:01:38;99953.02;;;2.05;79.17
58662;BME280;44432;49.786;22.760;2023-04-28T05:04:07;99954.96;;;2.17;79.32
58662;BME280;44432;49.786;22.760;2023-04-28T05:06:36;99954.13;;;2.30;79.11
58662;BME280;44432;49.786;22.760;2023-04-28T05:09:05;99954.91;;;2.42;78.93
58662;BME280;44432;49.786;22.760;2023-04-28T05:11:35;99960.72;;;2.56;78.78
58662;BME280;44432;49.786;22.760;2023-04-28T05:14:04;99952.91;;;2.69;78.45
58662;BME280;44432;49.786;22.760;2023-04-28T05:16:33;99949.94;;;2.81;78.23
58662;BME280;44432;49.786;22.760;2023-04-28T05:19:02;99950.23;;;2.93;78.20
58662;BME280;44432;49.786;22.760;2023-04-28T05:21:31;99949.64;;;3.05;78.07
58662;BME280;44432;49.786;22.760;2023-04-28T05:24:01;99950.76;;;3.16;77.96
58662;BME280;44432;49.786;22.760;2023-04-28T05:26:30;99952.25;;;3.25;77.73
58662;BME280;44432;49.786;22.760;2023-04-28T05:28:59;99951.75;;;3.36;77.49
58662;BME280;44432;49.786;22.760;2023-04-28T05:31:28;99953.73;;;3.49;77.80
58662;BME280;44432;49.786;22.760;2023-04-28T05:33:57;99956.35;;;3.62;77.65
58662;BME280;44432;49.786;22.760;2023-04-28T05:36:26;99955.40;;;3.73;77.48
58662;BME280;44432;49.786;22.760;2023-04-28T05:38:55;99958.30;;;3.84;77.38
58662;BME280;44432;49.786;22.760;2023-04-28T05:41:24;99956.40;;;3.94;77.17
58662;BME280;44432;49.786;22.760;2023-04-28T05:43:53;99964.48;;;4.07;76.93
58662;BME280;44432;49.786;22.760;2023-04-28T05:46:22;99955.79;;;4.21;77.10
58662;BME280;44432;49.786;22.760;2023-04-28T05:48:52;99954.59;;;4.34;76.69
58662;BME280;44432;49.786;22.760;2023-04-28T05:51:21;99955.20;;;4.47;76.40
58662;BME280;44432;49.786;22.760;2023-04-28T05:53:50;99955.05;;;4.57;76.12
58662;BME280;44432;49.786;22.760;2023-04-28T05:56:19;99954.71;;;4.71;76.04
58662;BME280;44432;49.786;22.760;2023-04-28T05:58:48;99956.97;;;4.82;75.79
58662;BME280;44432;49.786;22.760;2023-04-28T06:01:18;99955.90;;;4.94;75.48
58662;BME280;44432;49.786;22.760;2023-04-28T06:03:47;99958.91;;;5.07;75.30
58662;BME280;44432;49.786;22.760;2023-04-28T06:06:16;99959.35;;;5.19;75.19
58662;BME280;44432;49.786;22.760;2023-04-28T06:08:45;99957.48;;;5.32;75.11
58662;BME280;44432;49.786;22.760;2023-04-28T06:11:14;99957.05;;;5.47;74.91
58662;BME280;44432;49.786;22.760;2023-04-28T06:13:43;99947.61;;;5.62;74.70
58662;BME280;44432;49.786;22.760;2023-04-28T06:16:12;99953.21;;;5.78;74.47
58662;BME280;44432;49.786;22.760;2023-04-28T06:18:41;99952.80;;;5.93;73.81
58662;BME280;44432;49.786;22.760;2023-04-28T06:21:11;99958.05;;;6.08;73.59
58662;BME280;44432;49.786;22.760;2023-04-28T06:23:40;99953.26;;;6.23;73.27
58662;BME280;44432;49.786;22.760;2023-04-28T06:26:09;99954.91;;;6.36;73.09
58662;BME280;44432;49.786;22.760;2023-04-28T06:28:38;99953.86;;;6.49;72.37
58662;BME280;44432;49.786;22.760;2023-04-28T06:31:07;99955.51;;;6.62;72.37
58662;BME280;44432;49.786;22.760;2023-04-28T06:33:36;99953.64;;;6.76;71.82
58662;BME280;44432;49.786;22.760;2023-04-28T06:36:06;99953.71;;;6.89;71.29
58662;BME280;44432;49.786;22.760;2023-04-28T06:38:35;99955.70;;;7.04;71.15
58662;BME280;44432;49.786;22.760;2023-04-28T06:41:04;99957.67;;;7.19;70.55
58662;BME280;44432;49.786;22.760;2023-04-28T06:43:33;99956.64;;;7.34;70.34
58662;BME280;44432;49.786;22.760;2023-04-28T06:46:02;99955.77;;;7.49;69.84
58662;BME280;44432;49.786;22.760;2023-04-28T06:48:32;99956.40;;;7.65;69.35
58662;BME280;44432;49.786;22.760;2023-04-28T06:51:01;99951.64;;;7.80;69.04
58662;BME280;44432;49.786;22.760;2023-04-28T06:53:30;99952.25;;;7.96;68.84
58662;BME280;44432;49.786;22.760;2023-04-28T06:55:59;99951.35;;;8.14;68.11
58662;BME280;44432;49.786;22.760;2023-04-28T06:58:29;99944.15;;;8.32;66.97
58662;BME280;44432;49.786;22.760;2023-04-28T07:00:58;99947.80;;;8.50;66.62
58662;BME280;44432;49.786;22.760;2023-04-28T07:03:27;99947.07;;;8.68;65.82
58662;BME280;44432;49.786;22.760;2023-04-28T07:05:56;99946.67;;;8.85;64.78
58662;BME280;44432;49.786;22.760;2023-04-28T07:08:25;99952.30;;;9.03;63.64
58662;BME280;44432;49.786;22.760;2023-04-28T07:10:57;99947.56;;;9.18;63.03
58662;BME280;44432;49.786;22.760;2023-04-28T07:13:26;99946.66;;;9.36;62.45
58662;BME280;44432;49.786;22.760;2023-04-28T07:15:55;99945.98;;;9.55;61.84
58662;BME280;44432;49.786;22.760;2023-04-28T07:18:24;99940.55;;;9.73;60.78
58662;BME280;44432;49.786;22.760;2023-04-28T07:20:53;99937.80;;;9.91;60.20
58662;BME280;44432;49.786;22.760;2023-04-28T07:23:23;99939.69;;;10.11;59.29
58662;BME280;44432;49.786;22.760;2023-04-28T07:25:52;99939.58;;;10.26;57.59
58662;BME280;44432;49.786;22.760;2023-04-28T07:28:21;99932.16;;;10.40;56.73
58662;BME280;44432;49.786;22.760;2023-04-28T07:30:50;99932.63;;;10.53;55.75
58662;BME280;44432;49.786;22.760;2023-04-28T07:33:19;99934.50;;;10.63;54.34
58662;BME280;44432;49.786;22.760;2023-04-28T07:35:49;99927.70;;;10.64;53.89
58662;BME280;44432;49.786;22.760;2023-04-28T07:38:19;99920.85;;;10.62;52.83
58662;BME280;44432;49.786;22.760;2023-04-28T07:40:48;99919.63;;;10.54;52.43
58662;BME280;44432;49.786;22.760;2023-04-28T07:43:17;99918.52;;;10.53;52.72
58662;BME280;44432;49.786;22.760;2023-04-28T07:45:46;99921.16;;;10.60;51.89
58662;BME280;44432;49.786;22.760;2023-04-28T07:48:16;99915.63;;;10.70;51.41
58662;BME280;44432;49.786;22.760;2023-04-28T07:50:45;99917.54;;;10.79;50.95
58662;BME280;44432;49.786;22.760;2023-04-28T07:53:14;99914.14;;;10.84;50.54
58662;BME280;44432;49.786;22.760;2023-04-28T07:55:43;99913.75;;;10.91;50.64
58662;BME280;44432;49.786;22.760;2023-04-28T07:58:13;99914.28;;;11.05;50.60
58662;BME280;44432;49.786;22.760;2023-04-28T08:00:42;99910.08;;;11.15;49.75
58662;BME280;44432;49.786;22.760;2023-04-28T08:03:11;99912.13;;;11.30;50.44
58662;BME280;44432;49.786;22.760;2023-04-28T08:05:40;99908.34;;;11.48;50.33
58662;BME280;44432;49.786;22.760;2023-04-28T08:08:09;99904.60;;;11.65;50.53
58662;BME280;44432;49.786;22.760;2023-04-28T08:10:38;99906.21;;;11.79;49.63
58662;BME280;44432;49.786;22.760;2023-04-28T08:13:10;99903.64;;;11.79;48.60
58662;BME280;44432;49.786;22.760;2023-04-28T08:15:39;99898.23;;;11.83;48.75
58662;BME280;44432;49.786;22.760;2023-04-28T08:18:09;99898.54;;;12.00;49.03
58662;BME280;44432;49.786;22.760;2023-04-28T08:20:38;99890.50;;;12.22;48.73
58662;BME280;44432;49.786;22.760;2023-04-28T08:23:07;99884.89;;;12.43;48.63
58662;BME280;44432;49.786;22.760;2023-04-28T08:25:36;99886.42;;;12.64;48.00
58662;BME280;44432;49.786;22.760;2023-04-28T08:28:05;99887.33;;;12.86;46.80
58662;BME280;44432;49.786;22.760;2023-04-28T08:30:35;99888.73;;;13.03;45.15
58662;BME280;44432;49.786;22.760;2023-04-28T08:33:05;99885.61;;;13.08;43.94
58662;BME280;44432;49.786;22.760;2023-04-28T08:35:34;99888.80;;;13.08;41.33
58662;BME280;44432;49.786;22.760;2023-04-28T08:38:03;99884.70;;;12.74;40.96
58662;BME280;44432;49.786;22.760;2023-04-28T08:40:32;99886.40;;;12.59;41.40
58662;BME280;44432;49.786;22.760;2023-04-28T08:43:01;99886.34;;;12.62;41.30
58662;BME280;44432;49.786;22.760;2023-04-28T08:45:31;99885.64;;;12.65;41.18
58662;BME280;44432;49.786;22.760;2023-04-28T08:48:06;99882.83;;;12.64;40.58
58662;BME280;44432;49.786;22.760;2023-04-28T08:50:42;99888.92;;;12.66;42.38
58662;BME280;44432;49.786;22.760;2023-04-28T08:53:12;99878.67;;;12.72;43.03
58662;BME280;44432;49.786;22.760;2023-04-28T08:55:42;99874.27;;;12.82;44.07
58662;BME280;44432;49.786;22.760;2023-04-28T08:58:12;99874.85;;;13.00;44.05
58662;BME280;44432;49.786;22.760;2023-04-28T09:00:41;99869.71;;;13.14;43.86
58662;BME280;44432;49.786;22.760;2023-04-28T09:03:10;99871.70;;;13.35;44.13
58662;BME280;44432;49.786;22.760;2023-04-28T09:05:40;99864.01;;;13.61;44.02
58662;BME280;44432;49.786;22.760;2023-04-28T09:08:10;99864.34;;;13.82;43.64
58662;BME280;44432;49.786;22.760;2023-04-28T09:10:39;99863.30;;;13.99;43.23
58662;BME280;44432;49.786;22.760;2023-04-28T09:13:09;99861.27;;;14.02;42.52
58662;BME280;44432;49.786;22.760;2023-04-28T09:15:38;99857.34;;;13.95;41.74
58662;BME280;44432;49.786;22.760;2023-04-28T09:18:08;99854.28;;;13.99;42.03
58662;BME280;44432;49.786;22.760;2023-04-28T09:20:42;99849.08;;;14.04;42.20
58662;BME280;44432;49.786;22.760;2023-04-28T09:23:13;99850.54;;;14.01;41.81
58662;BME280;44432;49.786;22.760;2023-04-28T09:25:55;99850.27;;;13.77;41.34
58662;BME280;44432;49.786;22.760;2023-04-28T09:28:25;99849.08;;;13.38;40.75
58662;BME280;44432;49.786;22.760;2023-04-28T09:30:55;99846.30;;;13.12;41.70
58662;BME280;44432;49.786;22.760;2023-04-28T09:33:24;99843.41;;;13.13;42.28
58662;BME280;44432;49.786;22.760;2023-04-28T09:35:53;99837.74;;;13.21;42.27
58662;BME280;44432;49.786;22.760;2023-04-28T09:38:22;99832.35;;;13.27;42.13
58662;BME280;44432;49.786;22.760;2023-04-28T09:40:52;99827.45;;;13.42;42.46
58662;BME280;44432;49.786;22.760;2023-04-28T09:43:29;99826.61;;;13.65;42.35
58662;BME280;44432;49.786;22.760;2023-04-28T09:45:59;99827.55;;;13.78;41.80
58662;BME280;44432;49.786;22.760;2023-04-28T09:48:30;99823.40;;;13.87;41.74
58662;BME280;44432;49.786;22.760;2023-04-28T09:51:00;99826.26;;;13.99;41.63
58662;BME280;44432;49.786;22.760;2023-04-28T09:53:29;99820.89;;;14.14;41.57
58662;BME280;44432;49.786;22.760;2023-04-28T09:55:59;99816.77;;;14.28;41.27
58662;BME280;44432;49.786;22.760;2023-04-28T09:58:29;99813.60;;;14.41;41.32
58662;BME280;44432;49.786;22.760;2023-04-28T10:00:59;99807.84;;;14.56;40.90
58662;BME280;44432;49.786;22.760;2023-04-28T10:03:29;99802.11;;;14.65;40.70
58662;BME280;44432;49.786;22.760;2023-04-28T10:05:59;99797.14;;;14.72;40.38
58662;BME280;44432;49.786;22.760;2023-04-28T10:08:29;99796.16;;;14.78;40.17
58662;BME280;44432;49.786;22.760;2023-04-28T10:10:58;99794.40;;;14.86;39.77
58662;BME280;44432;49.786;22.760;2023-04-28T10:13:28;99792.27;;;14.89;39.64
58662;BME280;44432;49.786;22.760;2023-04-28T10:15:57;99793.02;;;14.96;39.70
58662;BME280;44432;49.786;22.760;2023-04-28T10:18:27;99791.67;;;15.02;39.38
58662;BME280;44432;49.786;22.760;2023-04-28T10:20:59;99786.54;;;14.86;37.84
58662;BME280;44432;49.786;22.760;2023-04-28T10:23:46;99788.05;;;14.45;37.48
58662;BME280;44432;49.786;22.760;2023-04-28T10:26:21;99780.19;;;14.20;38.07
58662;BME280;44432;49.786;22.760;2023-04-28T10:28:55;99773.91;;;14.16;38.29
58662;BME280;44432;49.786;22.760;2023-04-28T10:31:25;99772.49;;;14.21;38.66
58662;BME280;44432;49.786;22.760;2023-04-28T10:33:54;99775.16;;;14.27;38.41
58662;BME280;44432;49.786;22.760;2023-04-28T10:39:12;99780.00;;;14.16;38.13
58662;BME280;44432;49.786;22.760;2023-04-28T10:41:42;99782.70;;;14.08;37.70
58662;BME280;44432;49.786;22.760;2023-04-28T10:47:00;99778.99;;;13.56;38.15
58662;BME280;44432;49.786;22.760;2023-04-28T10:57:38;99764.77;;;13.55;39.25
58662;BME280;44432;49.786;22.760;2023-04-28T11:00:27;99762.91;;;13.59;38.83
58662;BME280;44432;49.786;22.760;2023-04-28T11:02:57;99757.73;;;13.62;38.81
58662;BME280;44432;49.786;22.760;2023-04-28T11:05:26;99752.29;;;13.64;38.49
58662;BME280;44432;49.786;22.760;2023-04-28T11:14:29;99740.10;;;13.77;38.83
58662;BME280;44432;49.786;22.760;2023-04-28T11:16:49;99741.59;;;13.86;38.43
58662;BME280;44432;49.786;22.760;2023-04-28T11:19:19;99732.81;;;13.90;38.45
58662;BME280;44432;49.786;22.760;2023-04-28T11:21:48;99735.36;;;13.95;38.20
58662;BME280;44432;49.786;22.760;2023-04-28T11:24:17;99732.25;;;14.05;38.07
58662;BME280;44432;49.786;22.760;2023-04-28T11:26:46;99734.55;;;14.17;37.92
58662;BME280;44432;49.786;22.760;2023-04-28T11:29:16;99740.73;;;14.28;37.62
58662;BME280;44432;49.786;22.760;2023-04-28T11:31:49;99732.18;;;14.39;37.48
58662;BME280;44432;49.786;22.760;2023-04-28T11:34:19;99731.83;;;14.53;37.46
58662;BME280;44432;49.786;22.760;2023-04-28T11:36:48;99736.52;;;14.63;36.81
58662;BME280;44432;49.786;22.760;2023-04-28T11:39:24;99732.58;;;14.67;36.75
58662;BME280;44432;49.786;22.760;2023-04-28T11:41:55;99721.86;;;14.70;36.72
58662;BME280;44432;49.786;22.760;2023-04-28T11:44:25;99716.94;;;14.79;36.73
58662;BME280;44432;49.786;22.760;2023-04-28T11:46:55;99715.71;;;14.79;36.49
58662;BME280;44432;49.786;22.760;2023-04-28T11:49:27;99713.30;;;14.61;36.21
58662;BME280;44432;49.786;22.760;2023-04-28T11:51:57;99707.26;;;14.46;36.57
58662;BME280;44432;49.786;22.760;2023-04-28T11:54:32;99705.52;;;14.39;36.92
58662;BME280;44432;49.786;22.760;2023-04-28T11:57:02;99700.23;;;14.38;37.17
58662;BME280;44432;49.786;22.760;2023-04-28T11:59:32;99698.97;;;14.40;36.93
58662;BME280;44432;49.786;22.760;2023-04-28T12:02:02;99695.08;;;14.43;36.79
58662;BME280;44432;49.786;22.760;2023-04-28T12:04:32;99697.44;;;14.49;36.81
58662;BME280;44432;49.786;22.760;2023-04-28T12:07:03;99692.23;;;14.60;36.99
58662;BME280;44432;49.786;22.760;2023-04-28T12:09:32;99689.75;;;14.74;36.90
58662;BME280;44432;49.786;22.760;2023-04-28T12:12:02;99688.00;;;14.85;36.57
58662;BME280;44432;49.786;22.760;2023-04-28T12:14:32;99686.62;;;14.92;36.29
58662;BME280;44432;49.786;22.760;2023-04-28T12:17:02;99684.86;;;14.94;35.72
58662;BME280;44432;49.786;22.760;2023-04-28T12:19:43;99680.80;;;14.91;35.81
58662;BME280;44432;49.786;22.760;2023-04-28T12:22:12;99681.41;;;14.83;35.34
58662;BME280;44432;49.786;22.760;2023-04-28T12:24:44;99676.05;;;14.63;34.85
58662;BME280;44432;49.786;22.760;2023-04-28T12:27:17;99673.95;;;14.32;35.04
58662;BME280;44432;49.786;22.760;2023-04-28T12:29:48;99673.27;;;14.18;35.37
58662;BME280;44432;49.786;22.760;2023-04-28T12:32:17;99672.85;;;14.15;35.76
58662;BME280;44432;49.786;22.760;2023-04-28T12:34:46;99667.61;;;14.13;35.90
58662;BME280;44432;49.786;22.760;2023-04-28T12:37:17;99664.11;;;14.09;36.13
58662;BME280;44432;49.786;22.760;2023-04-28T12:39:46;99657.65;;;14.06;36.47
58662;BME280;44432;49.786;22.760;2023-04-28T12:42:15;99654.78;;;14.10;36.46
58662;BME280;44432;49.786;22.760;2023-04-28T12:44:44;99658.47;;;14.15;36.50
58662;BME280;44432;49.786;22.760;2023-04-28T12:47:13;99649.48;;;14.15;36.42
58662;BME280;44432;49.786;22.760;2023-04-28T12:49:43;99645.92;;;14.15;36.75
58662;BME280;44432;49.786;22.760;2023-04-28T12:52:12;99643.10;;;14.18;36.56
58662;BME280;44432;49.786;22.760;2023-04-28T12:54:41;99640.52;;;14.19;36.26
58662;BME280;44432;49.786;22.760;2023-04-28T12:57:14;99637.48;;;14.17;36.25
58662;BME280;44432;49.786;22.760;2023-04-28T12:59:43;99637.90;;;14.17;36.22
58662;BME280;44432;49.786;22.760;2023-04-28T13:02:13;99632.13;;;14.17;36.28
58662;BME280;44432;49.786;22.760;2023-04-28T13:04:43;99622.48;;;14.22;36.52
58662;BME280;44432;49.786;22.760;2023-04-28T13:07:13;99619.70;;;14.26;36.20
58662;BME280;44432;49.786;22.760;2023-04-28T13:09:42;99619.20;;;14.24;36.00
58662;BME280;44432;49.786;22.760;2023-04-28T13:12:11;99616.69;;;14.22;36.27
58662;BME280;44432;49.786;22.760;2023-04-28T13:14:40;99614.67;;;14.22;35.99
58662;BME280;44432;49.786;22.760;2023-04-28T13:17:09;99611.66;;;14.23;36.36
58662;BME280;44432;49.786;22.760;2023-04-28T13:19:39;99608.81;;;14.30;36.63
58662;BME280;44432;49.786;22.760;2023-04-28T13:22:08;99600.40;;;14.35;36.67
58662;BME280;44432;49.786;22.760;2023-04-28T13:24:39;99605.99;;;14.44;36.82
58662;BME280;44432;49.786;22.760;2023-04-28T13:27:08;99600.05;;;14.46;36.50